sensor_id;sensor_type;location;lat;lon;timestamp;temperature;humidity
8231;DHT22;4156;50.908;6.974;2023-04-21T00:01:47;10.20;99.90
8231;DHT22;4156;50.908;6.974;2023-04-21T00:04:13;10.10;99.90
8231;DHT22;4156;50.908;6.974;2023-04-21T00:06:39;10.10;99.90
8231;DHT22;4156;50.908;6.974;2023-04-21T00:09:09;10.10;99.90
8231;DHT22;4156;50.908;6.974;2023-04-21T00:11:35;10.10;99.90
8231;DHT22;4156;50.908;6.974;2023-04-21T00:14:01;10.10;99.90
8231;DHT22;4156;50.908;6.974;2023-04-21T00:16:26;10.10;99.90
8231;DHT22;4156;50.908;6.974;2023-04-21T00:18:52;10.10;99.90
8231;DHT22;4156;50.908;6.974;2023-04-21T00:21:17;10.10;99.90
8231;DHT22;4156;50.908;6.974;2023-04-21T00:23:43;10.10;99.90
8231;DHT22;4156;50.908;6.974;2023-04-21T00:26:08;10.10;99.90
8231;DHT22;4156;50.908;6.974;2023-04-21T00:28:34;10.10;99.90
8231;DHT22;4156;50.908;6.974;2023-04-21T00:30:59;10.10;99.90
8231;DHT22;4156;50.908;6.974;2023-04-21T00:33:25;10.10;99.90
8231;DHT22;4156;50.908;6.974;2023-04-21T00:35:51;10.10;99.90
8231;DHT22;4156;50.908;6.974;2023-04-21T00:38:18;10.10;99.90
8231;DHT22;4156;50.908;6.974;2023-04-21T00:40:45;10.10;99.90
8231;DHT22;4156;50.908;6.974;2023-04-21T00:43:10;10.10;99.90
8231;DHT22;4156;50.908;6.974;2023-04-21T00:45:36;10.10;99.90
8231;DHT22;4156;50.908;6.974;2023-04-21T00:48:01;10.10;99.90
8231;DHT22;4156;50.908;6.974;2023-04-21T00:50:27;10.10;99.90
8231;DHT22;4156;50.908;6.974;2023-04-21T00:52:54;10.10;99.90
8231;DHT22;4156;50.908;6.974;2023-04-21T00:55:20;10.10;99.90
8231;DHT22;4156;50.908;6.974;2023-04-21T00:57:46;10.10;99.90
8231;DHT22;4156;50.908;6.974;2023-04-21T01:00:13;10.10;99.90
8231;DHT22;4156;50.908;6.974;2023-04-21T01:02:39;10.10;99.90
8231;DHT22;4156;50.908;6.974;2023-04-21T01:05:06;10.10;99.90
8231;DHT22;4156;50.908;6.974;2023-04-21T01:07:33;10.10;99.90
8231;DHT22;4156;50.908;6.974;2023-04-21T01:09:59;10.10;99.90
8231;DHT22;4156;50.908;6.974;2023-04-21T01:12:25;10.10;99.90
8231;DHT22;4156;50.908;6.974;2023-04-21T01:14:51;10.10;99.90
8231;DHT22;4156;50.908;6.974;2023-04-21T01:17:16;10.10;99.90
8231;DHT22;4156;50.908;6.974;2023-04-21T01:19:44;10.10;99.90
8231;DHT22;4156;50.908;6.974;2023-04-21T01:22:11;10.10;99.90
8231;DHT22;4156;50.908;6.974;2023-04-21T01:24:39;10.10;99.90
8231;DHT22;4156;50.908;6.974;2023-04-21T01:27:16;10.10;99.90
8231;DHT22;4156;50.908;6.974;2023-04-21T01:29:44;10.10;99.90
8231;DHT22;4156;50.908;6.974;2023-04-21T01:32:19;10.10;99.90
8231;DHT22;4156;50.908;6.974;2023-04-21T01:34:45;10.10;99.90
8231;DHT22;4156;50.908;6.974;2023-04-21T01:37:13;10.10;99.90
8231;DHT22;4156;50.908;6.974;2023-04-21T01:39:40;10.10;99.90
8231;DHT22;4156;50.908;6.974;2023-04-21T01:42:06;10.10;99.90
8231;DHT22;4156;50.908;6.974;2023-04-21T01:44:33;10.10;99.90
8231;DHT22;4156;50.908;6.974;2023-04-21T01:46:59;10.10;99.90
8231;DHT22;4156;50.908;6.974;2023-04-21T01:49:25;10.10;99.90
8231;DHT22;4156;50.908;6.974;2023-04-21T01:51:50;10.10;99.90
8231;DHT22;4156;50.908;6.974;2023-04-21T01:54:16;10.10;99.90
8231;DHT22;4156;50.908;6.974;2023-04-21T01:56:41;10.10;99.90
8231;DHT22;4156;50.908;6.974;2023-04-21T01:59:07;10.10;99.90
8231;DHT22;4156;50.908;6.974;2023-04-21T02:01:32;10.10;99.90
8231;DHT22;4156;50.908;6.974;2023-04-21T02:04:00;10.10;99.90
8231;DHT22;4156;50.908;6.974;2023-04-21T02:06:26;10.00;99.90
8231;DHT22;4156;50.908;6.974;2023-04-21T02:08:51;10.00;99.90
8231;DHT22;4156;50.908;6.974;2023-04-21T02:11:17;10.00;99.90
8231;DHT22;4156;50.908;6.974;2023-04-21T02:13:42;10.00;99.90
8231;DHT22;4156;50.908;6.974;2023-04-21T02:16:08;10.00;99.90
8231;DHT22;4156;50.908;6.974;2023-04-21T02:18:34;10.00;99.90
8231;DHT22;4156;50.908;6.974;2023-04-21T02:20:59;10.00;99.90
8231;DHT22;4156;50.908;6.974;2023-04-21T02:23:24;10.00;99.90
8231;DHT22;4156;50.908;6.974;2023-04-21T02:25:50;10.00;99.90
8231;DHT22;4156;50.908;6.974;2023-04-21T02:28:15;10.00;99.90
8231;DHT22;4156;50.908;6.974;2023-04-21T02:30:41;10.00;99.90
8231;DHT22;4156;50.908;6.974;2023-04-21T02:33:06;10.00;99.90
8231;DHT22;4156;50.908;6.974;2023-04-21T02:35:32;9.90;99.90
8231;DHT22;4156;50.908;6.974;2023-04-21T02:37:58;9.90;99.90
8231;DHT22;4156;50.908;6.974;2023-04-21T02:40:24;9.90;99.90
8231;DHT22;4156;50.908;6.974;2023-04-21T02:42:49;9.90;99.90
8231;DHT22;4156;50.908;6.974;2023-04-21T02:45:15;9.90;99.90
8231;DHT22;4156;50.908;6.974;2023-04-21T02:47:40;9.90;99.90
8231;DHT22;4156;50.908;6.974;2023-04-21T02:50:06;9.90;99.90
8231;DHT22;4156;50.908;6.974;2023-04-21T02:52:35;9.90;99.90
8231;DHT22;4156;50.908;6.974;2023-04-21T02:55:02;9.90;99.90
8231;DHT22;4156;50.908;6.974;2023-04-21T02:57:28;9.90;99.90
8231;DHT22;4156;50.908;6.974;2023-04-21T02:59:54;9.80;99.90
8231;DHT22;4156;50.908;6.974;2023-04-21T03:02:19;9.80;99.90
8231;DHT22;4156;50.908;6.974;2023-04-21T03:04:45;9.80;99.90
8231;DHT22;4156;50.908;6.974;2023-04-21T03:07:11;9.80;99.90
8231;DHT22;4156;50.908;6.974;2023-04-21T03:09:38;9.80;99.90
8231;DHT22;4156;50.908;6.974;2023-04-21T03:12:03;9.80;99.90
8231;DHT22;4156;50.908;6.974;2023-04-21T03:14:29;9.70;99.90
8231;DHT22;4156;50.908;6.974;2023-04-21T03:16:54;9.70;99.90
8231;DHT22;4156;50.908;6.974;2023-04-21T03:19:20;9.70;99.90
8231;DHT22;4156;50.908;6.974;2023-04-21T03:21:46;9.70;99.90
8231;DHT22;4156;50.908;6.974;2023-04-21T03:24:11;9.70;99.90
8231;DHT22;4156;50.908;6.974;2023-04-21T03:26:40;9.70;99.90
8231;DHT22;4156;50.908;6.974;2023-04-21T03:29:06;9.70;99.90
8231;DHT22;4156;50.908;6.974;2023-04-21T03:31:31;9.70;99.90
8231;DHT22;4156;50.908;6.974;2023-04-21T03:33:57;9.70;99.90
8231;DHT22;4156;50.908;6.974;2023-04-21T03:36:22;9.70;99.90
8231;DHT22;4156;50.908;6.974;2023-04-21T03:38:48;9.60;99.90
8231;DHT22;4156;50.908;6.974;2023-04-21T03:41:13;9.60;99.90
8231;DHT22;4156;50.908;6.974;2023-04-21T03:43:39;9.60;99.90
8231;DHT22;4156;50.908;6.974;2023-04-21T03:46:04;9.60;99.90
8231;DHT22;4156;50.908;6.974;2023-04-21T03:48:30;9.60;99.90
8231;DHT22;4156;50.908;6.974;2023-04-21T03:50:56;9.60;99.90
8231;DHT22;4156;50.908;6.974;2023-04-21T03:53:22;9.60;99.90
8231;DHT22;4156;50.908;6.974;2023-04-21T03:55:49;9.60;99.90
8231;DHT22;4156;50.908;6.974;2023-04-21T03:58:15;9.60;99.90
8231;DHT22;4156;50.908;6.974;2023-04-21T04:00:41;9.60;99.90
8231;DHT22;4156;50.908;6.974;2023-04-21T04:03:06;9.60;99.90
8231;DHT22;4156;50.908;6.974;2023-04-21T04:05:33;9.60;99.90
8231;DHT22;4156;50.908;6.974;2023-04-21T04:07:59;9.60;99.90
8231;DHT22;4156;50.908;6.974;2023-04-21T04:10:24;9.60;99.90
8231;DHT22;4156;50.908;6.974;2023-04-21T04:12:50;9.50;99.90
8231;DHT22;4156;50.908;6.974;2023-04-21T04:15:16;9.50;99.90
8231;DHT22;4156;50.908;6.974;2023-04-21T04:17:41;9.50;99.90
8231;DHT22;4156;50.908;6.974;2023-04-21T04:20:07;9.50;99.90
8231;DHT22;4156;50.908;6.974;2023-04-21T04:22:33;9.50;99.90
8231;DHT22;4156;50.908;6.974;2023-04-21T04:24:59;9.50;99.90
8231;DHT22;4156;50.908;6.974;2023-04-21T04:27:28;9.50;99.90
8231;DHT22;4156;50.908;6.974;2023-04-21T04:29:54;9.50;99.90
8231;DHT22;4156;50.908;6.974;2023-04-21T04:32:19;9.50;99.90
8231;DHT22;4156;50.908;6.974;2023-04-21T04:34:46;9.50;99.90
8231;DHT22;4156;50.908;6.974;2023-04-21T04:37:11;9.50;99.90
8231;DHT22;4156;50.908;6.974;2023-04-21T04:39:37;9.50;99.90
8231;DHT22;4156;50.908;6.974;2023-04-21T04:42:06;9.40;99.90
8231;DHT22;4156;50.908;6.974;2023-04-21T04:44:33;9.40;99.90
8231;DHT22;4156;50.908;6.974;2023-04-21T04:46:59;9.40;99.90
8231;DHT22;4156;50.908;6.974;2023-04-21T04:49:24;9.40;99.90
8231;DHT22;4156;50.908;6.974;2023-04-21T04:51:50;9.40;99.90
8231;DHT22;4156;50.908;6.974;2023-04-21T04:54:15;9.50;99.90
8231;DHT22;4156;50.908;6.974;2023-04-21T04:56:41;9.50;99.90
8231;DHT22;4156;50.908;6.974;2023-04-21T04:59:06;9.50;99.90
8231;DHT22;4156;50.908;6.974;2023-04-21T05:01:32;9.50;99.90
8231;DHT22;4156;50.908;6.974;2023-04-21T05:03:58;9.50;99.90
8231;DHT22;4156;50.908;6.974;2023-04-21T05:06:23;9.40;99.90
8231;DHT22;4156;50.908;6.974;2023-04-21T05:08:49;9.40;99.90
8231;DHT22;4156;50.908;6.974;2023-04-21T05:11:15;9.40;99.90
8231;DHT22;4156;50.908;6.974;2023-04-21T05:13:40;9.50;99.90
8231;DHT22;4156;50.908;6.974;2023-04-21T05:16:06;9.50;99.90
8231;DHT22;4156;50.908;6.974;2023-04-21T05:18:32;9.40;99.90
8231;DHT22;4156;50.908;6.974;2023-04-21T05:20:58;9.40;99.90
8231;DHT22;4156;50.908;6.974;2023-04-21T05:23:23;9.40;99.90
8231;DHT22;4156;50.908;6.974;2023-04-21T05:25:49;9.40;99.90
8231;DHT22;4156;50.908;6.974;2023-04-21T05:28:14;9.40;99.90
8231;DHT22;4156;50.908;6.974;2023-04-21T05:30:40;9.40;99.90
8231;DHT22;4156;50.908;6.974;2023-04-21T05:33:06;9.40;99.90
8231;DHT22;4156;50.908;6.974;2023-04-21T05:35:32;9.40;99.90
8231;DHT22;4156;50.908;6.974;2023-04-21T05:37:58;9.40;99.90
8231;DHT22;4156;50.908;6.974;2023-04-21T05:40:23;9.40;99.90
8231;DHT22;4156;50.908;6.974;2023-04-21T05:42:49;9.40;99.90
8231;DHT22;4156;50.908;6.974;2023-04-21T05:45:14;9.40;99.90
8231;DHT22;4156;50.908;6.974;2023-04-21T05:47:40;9.40;99.90
8231;DHT22;4156;50.908;6.974;2023-04-21T05:50:06;9.40;99.90
8231;DHT22;4156;50.908;6.974;2023-04-21T05:52:32;9.40;99.90
8231;DHT22;4156;50.908;6.974;2023-04-21T05:54:59;9.40;99.90
8231;DHT22;4156;50.908;6.974;2023-04-21T05:57:24;9.40;99.90
8231;DHT22;4156;50.908;6.974;2023-04-21T05:59:50;9.40;99.90
8231;DHT22;4156;50.908;6.974;2023-04-21T06:02:15;9.40;99.90
8231;DHT22;4156;50.908;6.974;2023-04-21T06:04:41;9.40;99.90
8231;DHT22;4156;50.908;6.974;2023-04-21T06:07:07;9.40;99.90
8231;DHT22;4156;50.908;6.974;2023-04-21T06:09:34;9.40;99.90
8231;DHT22;4156;50.908;6.974;2023-04-21T06:12:01;9.40;99.90
8231;DHT22;4156;50.908;6.974;2023-04-21T06:14:26;9.40;99.90
8231;DHT22;4156;50.908;6.974;2023-04-21T06:16:52;9.50;99.90
8231;DHT22;4156;50.908;6.974;2023-04-21T06:19:17;9.50;99.90
8231;DHT22;4156;50.908;6.974;2023-04-21T06:21:43;9.50;99.90
8231;DHT22;4156;50.908;6.974;2023-04-21T06:24:09;9.40;99.90
8231;DHT22;4156;50.908;6.974;2023-04-21T06:26:34;9.40;99.90
8231;DHT22;4156;50.908;6.974;2023-04-21T06:29:00;9.50;99.90
8231;DHT22;4156;50.908;6.974;2023-04-21T06:31:25;9.50;99.90
8231;DHT22;4156;50.908;6.974;2023-04-21T06:33:51;9.50;99.90
8231;DHT22;4156;50.908;6.974;2023-04-21T06:36:16;9.60;99.90
8231;DHT22;4156;50.908;6.974;2023-04-21T06:38:42;9.60;99.90
8231;DHT22;4156;50.908;6.974;2023-04-21T06:41:10;9.60;99.90
8231;DHT22;4156;50.908;6.974;2023-04-21T06:43:36;9.60;99.90
8231;DHT22;4156;50.908;6.974;2023-04-21T06:46:02;9.60;99.90
8231;DHT22;4156;50.908;6.974;2023-04-21T06:48:27;9.70;99.90
8231;DHT22;4156;50.908;6.974;2023-04-21T06:50:54;9.70;99.90
8231;DHT22;4156;50.908;6.974;2023-04-21T06:53:20;9.70;99.90
8231;DHT22;4156;50.908;6.974;2023-04-21T06:55:46;9.70;99.90
8231;DHT22;4156;50.908;6.974;2023-04-21T06:58:12;9.80;99.90
8231;DHT22;4156;50.908;6.974;2023-04-21T07:00:38;9.90;99.90
8231;DHT22;4156;50.908;6.974;2023-04-21T07:03:03;9.90;99.90
8231;DHT22;4156;50.908;6.974;2023-04-21T07:05:29;9.90;99.90
8231;DHT22;4156;50.908;6.974;2023-04-21T07:07:54;10.00;99.90
8231;DHT22;4156;50.908;6.974;2023-04-21T07:10:25;10.00;99.90
8231;DHT22;4156;50.908;6.974;2023-04-21T07:12:50;10.00;99.90
8231;DHT22;4156;50.908;6.974;2023-04-21T07:15:16;10.00;99.90
8231;DHT22;4156;50.908;6.974;2023-04-21T07:17:41;10.10;99.90
8231;DHT22;4156;50.908;6.974;2023-04-21T07:20:07;10.10;99.90
8231;DHT22;4156;50.908;6.974;2023-04-21T07:22:33;10.10;99.90
8231;DHT22;4156;50.908;6.974;2023-04-21T07:25:01;10.30;99.90
8231;DHT22;4156;50.908;6.974;2023-04-21T07:27:34;10.30;99.90
8231;DHT22;4156;50.908;6.974;2023-04-21T07:30:01;10.30;99.90
8231;DHT22;4156;50.908;6.974;2023-04-21T07:32:27;10.40;99.90
8231;DHT22;4156;50.908;6.974;2023-04-21T07:34:52;10.50;99.90
8231;DHT22;4156;50.908;6.974;2023-04-21T07:37:18;10.60;99.90
8231;DHT22;4156;50.908;6.974;2023-04-21T07:39:43;10.70;99.90
8231;DHT22;4156;50.908;6.974;2023-04-21T07:42:09;10.70;99.90
8231;DHT22;4156;50.908;6.974;2023-04-21T07:44:35;10.70;99.90
8231;DHT22;4156;50.908;6.974;2023-04-21T07:47:01;10.70;99.90
8231;DHT22;4156;50.908;6.974;2023-04-21T07:49:27;10.80;99.90
8231;DHT22;4156;50.908;6.974;2023-04-21T07:51:52;10.80;99.90
8231;DHT22;4156;50.908;6.974;2023-04-21T07:54:18;10.80;99.90
8231;DHT22;4156;50.908;6.974;2023-04-21T07:56:43;10.80;99.90
8231;DHT22;4156;50.908;6.974;2023-04-21T07:59:09;10.80;99.90
8231;DHT22;4156;50.908;6.974;2023-04-21T08:01:34;10.80;99.90
8231;DHT22;4156;50.908;6.974;2023-04-21T08:04:00;10.80;99.90
8231;DHT22;4156;50.908;6.974;2023-04-21T08:06:25;10.80;99.90
8231;DHT22;4156;50.908;6.974;2023-04-21T08:08:51;10.80;99.90
8231;DHT22;4156;50.908;6.974;2023-04-21T08:11:18;10.80;99.90
8231;DHT22;4156;50.908;6.974;2023-04-21T08:13:44;10.80;99.90
8231;DHT22;4156;50.908;6.974;2023-04-21T08:16:09;10.80;99.90
8231;DHT22;4156;50.908;6.974;2023-04-21T08:18:35;10.90;99.90
8231;DHT22;4156;50.908;6.974;2023-04-21T08:21:01;10.80;99.90
8231;DHT22;4156;50.908;6.974;2023-04-21T08:23:26;10.90;99.90
8231;DHT22;4156;50.908;6.974;2023-04-21T08:25:54;10.90;99.90
8231;DHT22;4156;50.908;6.974;2023-04-21T08:28:20;11.00;99.90
8231;DHT22;4156;50.908;6.974;2023-04-21T08:30:45;11.00;99.90
8231;DHT22;4156;50.908;6.974;2023-04-21T08:33:11;11.00;99.90
8231;DHT22;4156;50.908;6.974;2023-04-21T08:35:39;11.00;99.90
8231;DHT22;4156;50.908;6.974;2023-04-21T08:38:05;10.90;99.90
8231;DHT22;4156;50.908;6.974;2023-04-21T08:40:35;11.00;99.90
8231;DHT22;4156;50.908;6.974;2023-04-21T08:43:06;11.00;99.90
8231;DHT22;4156;50.908;6.974;2023-04-21T08:45:32;11.00;99.90
8231;DHT22;4156;50.908;6.974;2023-04-21T08:47:59;11.10;99.90
8231;DHT22;4156;50.908;6.974;2023-04-21T08:50:27;11.00;99.90
8231;DHT22;4156;50.908;6.974;2023-04-21T08:52:54;11.10;99.90
8231;DHT22;4156;50.908;6.974;2023-04-21T08:55:25;11.20;99.90
8231;DHT22;4156;50.908;6.974;2023-04-21T08:57:51;11.20;99.90
8231;DHT22;4156;50.908;6.974;2023-04-21T09:00:17;11.20;99.90
8231;DHT22;4156;50.908;6.974;2023-04-21T09:02:53;11.20;99.90
8231;DHT22;4156;50.908;6.974;2023-04-21T09:05:25;11.30;99.90
8231;DHT22;4156;50.908;6.974;2023-04-21T09:07:53;11.30;99.90
8231;DHT22;4156;50.908;6.974;2023-04-21T09:10:30;11.40;99.90
8231;DHT22;4156;50.908;6.974;2023-04-21T09:12:56;11.40;99.90
8231;DHT22;4156;50.908;6.974;2023-04-21T09:15:21;11.40;99.90
8231;DHT22;4156;50.908;6.974;2023-04-21T09:17:54;11.50;99.90
8231;DHT22;4156;50.908;6.974;2023-04-21T09:20:21;11.50;99.90
8231;DHT22;4156;50.908;6.974;2023-04-21T09:22:50;11.50;99.90
8231;DHT22;4156;50.908;6.974;2023-04-21T09:25:18;11.60;99.90
8231;DHT22;4156;50.908;6.974;2023-04-21T09:27:44;11.70;99.90
8231;DHT22;4156;50.908;6.974;2023-04-21T09:30:11;11.70;99.90
8231;DHT22;4156;50.908;6.974;2023-04-21T09:32:38;11.70;99.90
8231;DHT22;4156;50.908;6.974;2023-04-21T09:35:10;11.80;99.90
8231;DHT22;4156;50.908;6.974;2023-04-21T09:37:36;11.80;99.90
8231;DHT22;4156;50.908;6.974;2023-04-21T09:40:02;11.80;99.90
8231;DHT22;4156;50.908;6.974;2023-04-21T09:42:29;11.80;99.90
8231;DHT22;4156;50.908;6.974;2023-04-21T09:44:55;11.90;99.90
8231;DHT22;4156;50.908;6.974;2023-04-21T09:47:21;11.90;99.90
8231;DHT22;4156;50.908;6.974;2023-04-21T09:49:50;11.90;99.90
8231;DHT22;4156;50.908;6.974;2023-04-21T09:52:18;11.90;99.90
8231;DHT22;4156;50.908;6.974;2023-04-21T09:54:49;12.00;99.90
8231;DHT22;4156;50.908;6.974;2023-04-21T09:57:20;12.10;99.90
8231;DHT22;4156;50.908;6.974;2023-04-21T09:59:47;12.20;99.90
8231;DHT22;4156;50.908;6.974;2023-04-21T10:02:17;12.10;99.90
8231;DHT22;4156;50.908;6.974;2023-04-21T10:04:43;12.20;99.90
8231;DHT22;4156;50.908;6.974;2023-04-21T10:07:10;12.20;99.90
8231;DHT22;4156;50.908;6.974;2023-04-21T10:09:42;12.20;99.90
8231;DHT22;4156;50.908;6.974;2023-04-21T10:12:10;12.30;99.90
8231;DHT22;4156;50.908;6.974;2023-04-21T10:14:37;12.20;99.90
8231;DHT22;4156;50.908;6.974;2023-04-21T10:17:07;12.20;99.90
8231;DHT22;4156;50.908;6.974;2023-04-21T10:19:35;12.30;99.90
8231;DHT22;4156;50.908;6.974;2023-04-21T10:22:07;12.30;99.90
8231;DHT22;4156;50.908;6.974;2023-04-21T10:24:39;12.20;99.90
8231;DHT22;4156;50.908;6.974;2023-04-21T10:27:09;12.30;99.90
8231;DHT22;4156;50.908;6.974;2023-04-21T10:29:34;12.30;99.90
8231;DHT22;4156;50.908;6.974;2023-04-21T10:32:00;12.40;99.90
8231;DHT22;4156;50.908;6.974;2023-04-21T10:34:35;12.40;99.90
8231;DHT22;4156;50.908;6.974;2023-04-21T10:39:31;12.50;99.90
8231;DHT22;4156;50.908;6.974;2023-04-21T10:42:17;12.60;99.90
8231;DHT22;4156;50.908;6.974;2023-04-21T10:47:36;12.60;99.90
8231;DHT22;4156;50.908;6.974;2023-04-21T10:50:20;12.70;99.90
8231;DHT22;4156;50.908;6.974;2023-04-21T10:53:10;12.70;99.90
8231;DHT22;4156;50.908;6.974;2023-04-21T10:55:36;12.70;99.90
8231;DHT22;4156;50.908;6.974;2023-04-21T10:58:04;12.80;99.90
8231;DHT22;4156;50.908;6.974;2023-04-21T11:00:29;12.90;99.90
8231;DHT22;4156;50.908;6.974;2023-04-21T11:03:01;12.90;99.90
8231;DHT22;4156;50.908;6.974;2023-04-21T11:05:31;12.90;99.90
8231;DHT22;4156;50.908;6.974;2023-04-21T11:08:06;12.90;99.90
8231;DHT22;4156;50.908;6.974;2023-04-21T11:10:53;12.90;99.90
8231;DHT22;4156;50.908;6.974;2023-04-21T11:13:24;13.00;99.90
8231;DHT22;4156;50.908;6.974;2023-04-21T11:16:06;13.00;99.90
8231;DHT22;4156;50.908;6.974;2023-04-21T11:18:40;13.00;99.90
8231;DHT22;4156;50.908;6.974;2023-04-21T11:21:17;13.00;99.90
8231;DHT22;4156;50.908;6.974;2023-04-21T11:23:55;13.10;99.90
8231;DHT22;4156;50.908;6.974;2023-04-21T11:28:59;13.10;99.90
8231;DHT22;4156;50.908;6.974;2023-04-21T11:31:28;13.10;99.90
8231;DHT22;4156;50.908;6.974;2023-04-21T11:33:54;13.20;99.90
8231;DHT22;4156;50.908;6.974;2023-04-21T11:36:21;13.20;99.90
8231;DHT22;4156;50.908;6.974;2023-04-21T11:38:47;13.30;99.90
8231;DHT22;4156;50.908;6.974;2023-04-21T11:41:22;13.30;99.90
8231;DHT22;4156;50.908;6.974;2023-04-21T11:43:49;13.30;99.90
8231;DHT22;4156;50.908;6.974;2023-04-21T11:46:26;13.40;99.90
8231;DHT22;4156;50.908;6.974;2023-04-21T11:49:05;13.40;99.90
8231;DHT22;4156;50.908;6.974;2023-04-21T11:51:33;13.40;99.90
8231;DHT22;4156;50.908;6.974;2023-04-21T11:53:59;13.60;99.90
8231;DHT22;4156;50.908;6.974;2023-04-21T11:56:25;13.70;99.90
8231;DHT22;4156;50.908;6.974;2023-04-21T11:58:51;13.70;99.90
8231;DHT22;4156;50.908;6.974;2023-04-21T12:01:20;13.70;99.90
8231;DHT22;4156;50.908;6.974;2023-04-21T12:03:53;13.70;99.90
8231;DHT22;4156;50.908;6.974;2023-04-21T12:06:20;13.70;99.90
8231;DHT22;4156;50.908;6.974;2023-04-21T12:08:46;13.70;99.90
8231;DHT22;4156;50.908;6.974;2023-04-21T12:11:11;13.80;99.90
8231;DHT22;4156;50.908;6.974;2023-04-21T12:13:40;13.80;99.90
8231;DHT22;4156;50.908;6.974;2023-04-21T12:16:05;13.90;99.90
8231;DHT22;4156;50.908;6.974;2023-04-21T12:18:31;13.90;99.90
8231;DHT22;4156;50.908;6.974;2023-04-21T12:21:00;14.00;99.90
8231;DHT22;4156;50.908;6.974;2023-04-21T12:23:26;14.00;99.90
8231;DHT22;4156;50.908;6.974;2023-04-21T12:25:52;14.00;99.90
8231;DHT22;4156;50.908;6.974;2023-04-21T12:28:17;14.00;99.90
8231;DHT22;4156;50.908;6.974;2023-04-21T12:30:43;14.00;99.90
8231;DHT22;4156;50.908;6.974;2023-04-21T12:33:09;14.10;99.90
8231;DHT22;4156;50.908;6.974;2023-04-21T12:35:35;14.10;99.90
8231;DHT22;4156;50.908;6.974;2023-04-21T12:38:00;14.10;99.90
8231;DHT22;4156;50.908;6.974;2023-04-21T12:40:26;14.10;99.90
8231;DHT22;4156;50.908;6.974;2023-04-21T12:42:51;14.20;99.90
8231;DHT22;4156;50.908;6.974;2023-04-21T12:45:17;14.20;99.90
8231;DHT22;4156;50.908;6.974;2023-04-21T12:47:42;14.20;99.90
8231;DHT22;4156;50.908;6.974;2023-04-21T12:50:08;14.20;99.90
8231;DHT22;4156;50.908;6.974;2023-04-21T12:52:37;14.30;99.90
8231;DHT22;4156;50.908;6.974;2023-04-21T12:55:03;14.30;99.90
8231;DHT22;4156;50.908;6.974;2023-04-21T12:57:29;14.40;99.90
8231;DHT22;4156;50.908;6.974;2023-04-21T12:59:56;14.40;99.90
8231;DHT22;4156;50.908;6.974;2023-04-21T13:02:21;14.40;99.90
8231;DHT22;4156;50.908;6.974;2023-04-21T13:04:47;14.50;99.90
8231;DHT22;4156;50.908;6.974;2023-04-21T13:07:12;14.50;99.90
8231;DHT22;4156;50.908;6.974;2023-04-21T13:09:40;14.50;99.90
8231;DHT22;4156;50.908;6.974;2023-04-21T13:12:06;14.50;99.90
8231;DHT22;4156;50.908;6.974;2023-04-21T13:14:31;14.50;99.90
8231;DHT22;4156;50.908;6.974;2023-04-21T13:16:58;14.60;99.90
8231;DHT22;4156;50.908;6.974;2023-04-21T13:19:23;14.70;99.90
8231;DHT22;4156;50.908;6.974;2023-04-21T13:21:49;14.70;99.90
8231;DHT22;4156;50.908;6.974;2023-04-21T13:24:15;14.70;99.90
8231;DHT22;4156;50.908;6.974;2023-04-21T13:26:40;14.70;99.90
8231;DHT22;4156;50.908;6.974;2023-04-21T13:29:06;14.80;99.90
8231;DHT22;4156;50.908;6.974;2023-04-21T13:31:31;14.80;99.90
8231;DHT22;4156;50.908;6.974;2023-04-21T13:33:58;14.80;99.90
8231;DHT22;4156;50.908;6.974;2023-04-21T13:36:23;14.70;99.90
8231;DHT22;4156;50.908;6.974;2023-04-21T13:38:49;14.90;99.90
8231;DHT22;4156;50.908;6.974;2023-04-21T13:41:18;14.90;99.90
8231;DHT22;4156;50.908;6.974;2023-04-21T13:43:44;15.00;99.90
8231;DHT22;4156;50.908;6.974;2023-04-21T13:46:10;15.00;99.90
8231;DHT22;4156;50.908;6.974;2023-04-21T13:48:35;15.00;99.90
8231;DHT22;4156;50.908;6.974;2023-04-21T13:51:01;15.00;99.90
8231;DHT22;4156;50.908;6.974;2023-04-21T13:53:26;15.00;99.90
8231;DHT22;4156;50.908;6.974;2023-04-21T13:55:52;15.10;99.90
8231;DHT22;4156;50.908;6.974;2023-04-21T13:58:21;15.10;99.90
8231;DHT22;4156;50.908;6.974;2023-04-21T14:00:46;15.10;99.90
8231;DHT22;4156;50.908;6.974;2023-04-21T14:03:12;15.10;99.90
8231;DHT22;4156;50.908;6.974;2023-04-21T14:05:38;15.10;99.90
8231;DHT22;4156;50.908;6.974;2023-04-21T14:08:03;15.10;99.90
8231;DHT22;4156;50.908;6.974;2023-04-21T14:10:29;15.10;99.90
8231;DHT22;4156;50.908;6.974;2023-04-21T14:12:55;15.10;99.90
8231;DHT22;4156;50.908;6.974;2023-04-21T14:15:20;15.10;99.90
8231;DHT22;4156;50.908;6.974;2023-04-21T14:17:46;15.10;99.90
8231;DHT22;4156;50.908;6.974;2023-04-21T14:20:12;15.20;99.90
8231;DHT22;4156;50.908;6.974;2023-04-21T14:22:37;15.30;99.90
8231;DHT22;4156;50.908;6.974;2023-04-21T14:25:03;15.30;99.90
8231;DHT22;4156;50.908;6.974;2023-04-21T14:27:29;15.30;99.90
8231;DHT22;4156;50.908;6.974;2023-04-21T14:29:54;15.40;99.90
8231;DHT22;4156;50.908;6.974;2023-04-21T14:32:23;15.40;99.90
8231;DHT22;4156;50.908;6.974;2023-04-21T14:34:49;15.60;99.90
8231;DHT22;4156;50.908;6.974;2023-04-21T14:37:18;15.50;99.90
8231;DHT22;4156;50.908;6.974;2023-04-21T14:39:43;15.60;99.90
8231;DHT22;4156;50.908;6.974;2023-04-21T14:42:09;15.60;99.90
8231;DHT22;4156;50.908;6.974;2023-04-21T14:44:34;15.60;99.90
8231;DHT22;4156;50.908;6.974;2023-04-21T14:47:00;15.70;99.90
8231;DHT22;4156;50.908;6.974;2023-04-21T14:49:25;15.60;99.90
8231;DHT22;4156;50.908;6.974;2023-04-21T14:51:51;15.60;99.90
8231;DHT22;4156;50.908;6.974;2023-04-21T14:54:16;15.60;99.90
8231;DHT22;4156;50.908;6.974;2023-04-21T14:56:42;15.60;99.90
8231;DHT22;4156;50.908;6.974;2023-04-21T14:59:07;15.60;99.90
8231;DHT22;4156;50.908;6.974;2023-04-21T15:01:34;15.70;99.90
8231;DHT22;4156;50.908;6.974;2023-04-21T15:04:01;15.70;99.90
8231;DHT22;4156;50.908;6.974;2023-04-21T15:06:26;15.70;99.90
8231;DHT22;4156;50.908;6.974;2023-04-21T15:08:55;15.70;99.90
8231;DHT22;4156;50.908;6.974;2023-04-21T15:11:21;15.70;99.90
8231;DHT22;4156;50.908;6.974;2023-04-21T15:13:47;15.60;99.90
8231;DHT22;4156;50.908;6.974;2023-04-21T15:16:13;15.70;99.90
8231;DHT22;4156;50.908;6.974;2023-04-21T15:18:38;15.80;99.90
8231;DHT22;4156;50.908;6.974;2023-04-21T15:21:04;15.80;99.90
8231;DHT22;4156;50.908;6.974;2023-04-21T15:23:30;15.90;99.90
8231;DHT22;4156;50.908;6.974;2023-04-21T15:25:57;15.90;99.90
8231;DHT22;4156;50.908;6.974;2023-04-21T15:28:23;15.90;99.90
8231;DHT22;4156;50.908;6.974;2023-04-21T15:30:48;15.90;99.90
8231;DHT22;4156;50.908;6.974;2023-04-21T15:33:14;15.90;99.90
8231;DHT22;4156;50.908;6.974;2023-04-21T15:35:41;15.90;99.90
8231;DHT22;4156;50.908;6.974;2023-04-21T15:38:07;15.90;99.90
8231;DHT22;4156;50.908;6.974;2023-04-21T15:40:32;16.00;99.90
8231;DHT22;4156;50.908;6.974;2023-04-21T15:42:58;16.00;99.90
8231;DHT22;4156;50.908;6.974;2023-04-21T15:45:23;16.00;99.90
8231;DHT22;4156;50.908;6.974;2023-04-21T15:47:49;16.10;99.90
8231;DHT22;4156;50.908;6.974;2023-04-21T15:50:14;16.10;99.90
8231;DHT22;4156;50.908;6.974;2023-04-21T15:52:40;16.10;99.90
8231;DHT22;4156;50.908;6.974;2023-04-21T15:55:10;16.20;99.90
8231;DHT22;4156;50.908;6.974;2023-04-21T15:57:36;16.20;99.90
8231;DHT22;4156;50.908;6.974;2023-04-21T16:00:03;16.20;99.90
8231;DHT22;4156;50.908;6.974;2023-04-21T16:02:30;16.20;99.90
8231;DHT22;4156;50.908;6.974;2023-04-21T16:04:55;16.30;99.90
8231;DHT22;4156;50.908;6.974;2023-04-21T16:07:21;16.40;99.90
8231;DHT22;4156;50.908;6.974;2023-04-21T16:09:47;16.40;99.90
8231;DHT22;4156;50.908;6.974;2023-04-21T16:12:12;16.40;99.90